sensor_id;sensor_type;location;lat;lon;timestamp;P1;durP1;ratioP1;P2;durP2;ratioP2
13683;SDS011;6914;53.552;9.908;2023-06-10T00:01:49;9.67;;;6.27;;
13683;SDS011;6914;53.552;9.908;2023-06-10T00:04:16;19.33;;;5.67;;
13683;SDS011;6914;53.552;9.908;2023-06-10T00:06:44;15.20;;;6.23;;
13683;SDS011;6914;53.552;9.908;2023-06-10T00:09:14;12.03;;;5.77;;
13683;SDS011;6914;53.552;9.908;2023-06-10T00:11:43;15.27;;;6.30;;
13683;SDS011;6914;53.552;9.908;2023-06-10T00:14:10;7.47;;;5.40;;
13683;SDS011;6914;53.552;9.908;2023-06-10T00:16:40;12.03;;;6.07;;
13683;SDS011;6914;53.552;9.908;2023-06-10T00:19:10;12.73;;;6.50;;
13683;SDS011;6914;53.552;9.908;2023-06-10T00:21:39;9.67;;;5.67;;
13683;SDS011;6914;53.552;9.908;2023-06-10T00:24:07;11.40;;;5.57;;
13683;SDS011;6914;53.552;9.908;2023-06-10T00:26:40;11.80;;;6.70;;
13683;SDS011;6914;53.552;9.908;2023-06-10T00:29:08;15.10;;;6.40;;
13683;SDS011;6914;53.552;9.908;2023-06-10T00:31:38;10.87;;;5.90;;
13683;SDS011;6914;53.552;9.908;2023-06-10T00:34:05;9.73;;;5.23;;
13683;SDS011;6914;53.552;9.908;2023-06-10T00:36:39;12.07;;;6.20;;
13683;SDS011;6914;53.552;9.908;2023-06-10T00:39:15;9.00;;;5.80;;
13683;SDS011;6914;53.552;9.908;2023-06-10T00:41:44;8.93;;;5.60;;
13683;SDS011;6914;53.552;9.908;2023-06-10T00:44:11;14.00;;;5.27;;
13683;SDS011;6914;53.552;9.908;2023-06-10T00:46:39;12.57;;;5.60;;
13683;SDS011;6914;53.552;9.908;2023-06-10T00:49:06;6.47;;;4.27;;
13683;SDS011;6914;53.552;9.908;2023-06-10T00:51:33;12.33;;;4.93;;
13683;SDS011;6914;53.552;9.908;2023-06-10T00:54:01;16.50;;;5.47;;
13683;SDS011;6914;53.552;9.908;2023-06-10T00:56:29;12.43;;;4.37;;
13683;SDS011;6914;53.552;9.908;2023-06-10T00:58:57;9.80;;;4.87;;
13683;SDS011;6914;53.552;9.908;2023-06-10T01:01:25;9.00;;;5.10;;
13683;SDS011;6914;53.552;9.908;2023-06-10T01:03:52;12.83;;;4.23;;
13683;SDS011;6914;53.552;9.908;2023-06-10T01:06:22;8.80;;;4.43;;
13683;SDS011;6914;53.552;9.908;2023-06-10T01:08:55;11.87;;;4.90;;
13683;SDS011;6914;53.552;9.908;2023-06-10T01:11:25;5.03;;;4.53;;
13683;SDS011;6914;53.552;9.908;2023-06-10T01:13:55;4.47;;;4.03;;
13683;SDS011;6914;53.552;9.908;2023-06-10T01:16:23;13.90;;;5.00;;
13683;SDS011;6914;53.552;9.908;2023-06-10T01:18:51;12.20;;;5.17;;
13683;SDS011;6914;53.552;9.908;2023-06-10T01:21:21;8.37;;;3.90;;
13683;SDS011;6914;53.552;9.908;2023-06-10T01:23:50;9.47;;;4.70;;
13683;SDS011;6914;53.552;9.908;2023-06-10T01:26:17;7.27;;;5.03;;
13683;SDS011;6914;53.552;9.908;2023-06-10T01:28:47;16.93;;;4.60;;
13683;SDS011;6914;53.552;9.908;2023-06-10T01:31:20;11.17;;;4.73;;
13683;SDS011;6914;53.552;9.908;2023-06-10T01:33:51;14.10;;;4.20;;
13683;SDS011;6914;53.552;9.908;2023-06-10T01:36:18;17.03;;;5.03;;
13683;SDS011;6914;53.552;9.908;2023-06-10T01:38:48;9.40;;;4.70;;
13683;SDS011;6914;53.552;9.908;2023-06-10T01:41:17;11.83;;;3.83;;
13683;SDS011;6914;53.552;9.908;2023-06-10T01:43:44;8.13;;;3.83;;
13683;SDS011;6914;53.552;9.908;2023-06-10T01:46:13;5.27;;;4.60;;
13683;SDS011;6914;53.552;9.908;2023-06-10T01:48:40;4.87;;;3.83;;
13683;SDS011;6914;53.552;9.908;2023-06-10T01:51:08;12.83;;;5.00;;
13683;SDS011;6914;53.552;9.908;2023-06-10T01:53:35;7.57;;;4.07;;
13683;SDS011;6914;53.552;9.908;2023-06-10T01:56:04;4.93;;;3.87;;
13683;SDS011;6914;53.552;9.908;2023-06-10T01:58:31;8.00;;;3.90;;
13683;SDS011;6914;53.552;9.908;2023-06-10T02:00:58;4.53;;;3.13;;
13683;SDS011;6914;53.552;9.908;2023-06-10T02:03:26;9.00;;;3.87;;
13683;SDS011;6914;53.552;9.908;2023-06-10T02:05:53;15.87;;;3.67;;
13683;SDS011;6914;53.552;9.908;2023-06-10T02:08:20;4.87;;;4.37;;
13683;SDS011;6914;53.552;9.908;2023-06-10T02:10:47;5.47;;;4.00;;
13683;SDS011;6914;53.552;9.908;2023-06-10T02:13:16;5.77;;;3.27;;
13683;SDS011;6914;53.552;9.908;2023-06-10T02:15:43;14.47;;;4.40;;
13683;SDS011;6914;53.552;9.908;2023-06-10T02:18:10;4.60;;;3.63;;
13683;SDS011;6914;53.552;9.908;2023-06-10T02:20:41;6.03;;;3.97;;
13683;SDS011;6914;53.552;9.908;2023-06-10T02:23:08;8.10;;;4.33;;
13683;SDS011;6914;53.552;9.908;2023-06-10T02:25:35;12.10;;;3.63;;
13683;SDS011;6914;53.552;9.908;2023-06-10T02:28:02;6.27;;;4.00;;
13683;SDS011;6914;53.552;9.908;2023-06-10T02:30:32;6.23;;;3.70;;
13683;SDS011;6914;53.552;9.908;2023-06-10T02:32:59;11.43;;;3.90;;
13683;SDS011;6914;53.552;9.908;2023-06-10T02:35:26;6.23;;;4.53;;
13683;SDS011;6914;53.552;9.908;2023-06-10T02:37:53;7.10;;;3.57;;
13683;SDS011;6914;53.552;9.908;2023-06-10T02:40:20;6.50;;;3.07;;
13683;SDS011;6914;53.552;9.908;2023-06-10T02:42:47;12.63;;;4.23;;
13683;SDS011;6914;53.552;9.908;2023-06-10T02:45:15;8.43;;;3.73;;
13683;SDS011;6914;53.552;9.908;2023-06-10T02:47:43;7.50;;;3.80;;
13683;SDS011;6914;53.552;9.908;2023-06-10T02:50:11;11.87;;;3.77;;
13683;SDS011;6914;53.552;9.908;2023-06-10T02:52:39;17.17;;;4.27;;
13683;SDS011;6914;53.552;9.908;2023-06-10T02:55:06;6.07;;;2.93;;
13683;SDS011;6914;53.552;9.908;2023-06-10T02:57:33;11.90;;;3.50;;
13683;SDS011;6914;53.552;9.908;2023-06-10T03:00:00;8.07;;;3.80;;
13683;SDS011;6914;53.552;9.908;2023-06-10T03:02:29;8.30;;;3.33;;
13683;SDS011;6914;53.552;9.908;2023-06-10T03:04:58;11.47;;;4.30;;
13683;SDS011;6914;53.552;9.908;2023-06-10T03:07:25;9.43;;;3.53;;
13683;SDS011;6914;53.552;9.908;2023-06-10T03:09:52;3.40;;;3.00;;
13683;SDS011;6914;53.552;9.908;2023-06-10T03:12:19;8.27;;;2.83;;
13683;SDS011;6914;53.552;9.908;2023-06-10T03:14:46;4.53;;;3.23;;
13683;SDS011;6914;53.552;9.908;2023-06-10T03:17:14;6.03;;;3.30;;
13683;SDS011;6914;53.552;9.908;2023-06-10T03:19:42;7.70;;;3.50;;
13683;SDS011;6914;53.552;9.908;2023-06-10T03:22:11;6.67;;;3.03;;
13683;SDS011;6914;53.552;9.908;2023-06-10T03:24:39;3.50;;;2.50;;
13683;SDS011;6914;53.552;9.908;2023-06-10T03:27:08;9.53;;;2.90;;
13683;SDS011;6914;53.552;9.908;2023-06-10T03:29:36;9.03;;;3.17;;
13683;SDS011;6914;53.552;9.908;2023-06-10T03:32:05;27.30;;;3.77;;
13683;SDS011;6914;53.552;9.908;2023-06-10T03:34:32;8.57;;;3.40;;
13683;SDS011;6914;53.552;9.908;2023-06-10T03:37:00;7.97;;;3.20;;
13683;SDS011;6914;53.552;9.908;2023-06-10T03:39:29;8.80;;;3.00;;
13683;SDS011;6914;53.552;9.908;2023-06-10T03:41:56;11.93;;;3.43;;
13683;SDS011;6914;53.552;9.908;2023-06-10T03:44:23;11.10;;;3.53;;
13683;SDS011;6914;53.552;9.908;2023-06-10T03:46:51;6.63;;;3.27;;
13683;SDS011;6914;53.552;9.908;2023-06-10T03:49:18;3.40;;;2.70;;
13683;SDS011;6914;53.552;9.908;2023-06-10T03:51:45;9.70;;;3.10;;
13683;SDS011;6914;53.552;9.908;2023-06-10T03:54:12;8.83;;;2.90;;
13683;SDS011;6914;53.552;9.908;2023-06-10T03:56:41;5.53;;;3.23;;
13683;SDS011;6914;53.552;9.908;2023-06-10T03:59:17;6.50;;;3.20;;
13683;SDS011;6914;53.552;9.908;2023-06-10T04:01:44;4.50;;;2.63;;
13683;SDS011;6914;53.552;9.908;2023-06-10T04:04:13;12.17;;;2.93;;
13683;SDS011;6914;53.552;9.908;2023-06-10T04:06:41;2.67;;;2.37;;
13683;SDS011;6914;53.552;9.908;2023-06-10T04:09:09;7.73;;;3.00;;
13683;SDS011;6914;53.552;9.908;2023-06-10T04:11:37;7.97;;;3.17;;
13683;SDS011;6914;53.552;9.908;2023-06-10T04:14:07;4.90;;;2.60;;
13683;SDS011;6914;53.552;9.908;2023-06-10T04:16:34;8.40;;;3.10;;
13683;SDS011;6914;53.552;9.908;2023-06-10T04:19:05;4.43;;;2.77;;
13683;SDS011;6914;53.552;9.908;2023-06-10T04:21:32;5.83;;;2.57;;
13683;SDS011;6914;53.552;9.908;2023-06-10T04:23:59;19.03;;;2.73;;
13683;SDS011;6914;53.552;9.908;2023-06-10T04:26:26;6.80;;;3.00;;
13683;SDS011;6914;53.552;9.908;2023-06-10T04:28:53;10.73;;;3.37;;
13683;SDS011;6914;53.552;9.908;2023-06-10T04:31:22;10.60;;;3.10;;
13683;SDS011;6914;53.552;9.908;2023-06-10T04:33:49;5.83;;;2.53;;
13683;SDS011;6914;53.552;9.908;2023-06-10T04:36:16;5.27;;;1.93;;
13683;SDS011;6914;53.552;9.908;2023-06-10T04:38:43;6.70;;;2.73;;
13683;SDS011;6914;53.552;9.908;2023-06-10T04:41:11;9.43;;;3.20;;
13683;SDS011;6914;53.552;9.908;2023-06-10T04:43:40;18.33;;;2.90;;
13683;SDS011;6914;53.552;9.908;2023-06-10T04:46:07;10.03;;;2.70;;
13683;SDS011;6914;53.552;9.908;2023-06-10T04:48:41;8.57;;;3.07;;
13683;SDS011;6914;53.552;9.908;2023-06-10T04:51:12;11.07;;;2.57;;
13683;SDS011;6914;53.552;9.908;2023-06-10T04:53:40;5.87;;;2.93;;
13683;SDS011;6914;53.552;9.908;2023-06-10T04:56:07;7.03;;;2.40;;
13683;SDS011;6914;53.552;9.908;2023-06-10T04:58:34;10.67;;;2.43;;
13683;SDS011;6914;53.552;9.908;2023-06-10T05:01:01;13.97;;;2.97;;
13683;SDS011;6914;53.552;9.908;2023-06-10T05:03:28;3.67;;;2.23;;
13683;SDS011;6914;53.552;9.908;2023-06-10T05:05:57;9.97;;;2.67;;
13683;SDS011;6914;53.552;9.908;2023-06-10T05:08:24;6.87;;;2.97;;
13683;SDS011;6914;53.552;9.908;2023-06-10T05:10:52;4.40;;;2.47;;
13683;SDS011;6914;53.552;9.908;2023-06-10T05:13:19;7.40;;;2.53;;
13683;SDS011;6914;53.552;9.908;2023-06-10T05:15:46;12.93;;;3.00;;
13683;SDS011;6914;53.552;9.908;2023-06-10T05:18:13;8.20;;;2.40;;
13683;SDS011;6914;53.552;9.908;2023-06-10T05:20:41;8.53;;;2.40;;
13683;SDS011;6914;53.552;9.908;2023-06-10T05:23:09;10.07;;;2.40;;
13683;SDS011;6914;53.552;9.908;2023-06-10T05:25:36;5.90;;;2.50;;
13683;SDS011;6914;53.552;9.908;2023-06-10T05:28:04;4.80;;;2.30;;
13683;SDS011;6914;53.552;9.908;2023-06-10T05:30:34;5.60;;;1.73;;
13683;SDS011;6914;53.552;9.908;2023-06-10T05:33:02;9.17;;;2.93;;
13683;SDS011;6914;53.552;9.908;2023-06-10T05:35:29;9.90;;;2.97;;
13683;SDS011;6914;53.552;9.908;2023-06-10T05:37:57;6.57;;;2.43;;
13683;SDS011;6914;53.552;9.908;2023-06-10T05:40:25;7.87;;;2.40;;
13683;SDS011;6914;53.552;9.908;2023-06-10T05:42:53;6.57;;;2.50;;
13683;SDS011;6914;53.552;9.908;2023-06-10T05:45:20;2.70;;;2.50;;
13683;SDS011;6914;53.552;9.908;2023-06-10T05:47:47;10.77;;;2.80;;
13683;SDS011;6914;53.552;9.908;2023-06-10T05:50:14;12.50;;;2.50;;
13683;SDS011;6914;53.552;9.908;2023-06-10T05:52:42;5.27;;;2.40;;
13683;SDS011;6914;53.552;9.908;2023-06-10T05:55:09;4.83;;;3.03;;
13683;SDS011;6914;53.552;9.908;2023-06-10T05:57:44;7.40;;;2.80;;
13683;SDS011;6914;53.552;9.908;2023-06-10T06:00:13;9.83;;;2.70;;
13683;SDS011;6914;53.552;9.908;2023-06-10T06:02:41;9.30;;;2.93;;
13683;SDS011;6914;53.552;9.908;2023-06-10T06:05:08;4.87;;;2.63;;
13683;SDS011;6914;53.552;9.908;2023-06-10T06:07:35;12.63;;;3.23;;
13683;SDS011;6914;53.552;9.908;2023-06-10T06:10:03;6.63;;;3.17;;
13683;SDS011;6914;53.552;9.908;2023-06-10T06:12:30;3.63;;;2.00;;
13683;SDS011;6914;53.552;9.908;2023-06-10T06:14:59;4.17;;;2.23;;
13683;SDS011;6914;53.552;9.908;2023-06-10T06:17:26;7.13;;;2.20;;
13683;SDS011;6914;53.552;9.908;2023-06-10T06:19:53;8.40;;;2.50;;
13683;SDS011;6914;53.552;9.908;2023-06-10T06:22:23;6.80;;;3.50;;
13683;SDS011;6914;53.552;9.908;2023-06-10T06:24:50;6.10;;;2.40;;
13683;SDS011;6914;53.552;9.908;2023-06-10T06:27:17;6.40;;;2.53;;
13683;SDS011;6914;53.552;9.908;2023-06-10T06:29:44;5.10;;;2.37;;
13683;SDS011;6914;53.552;9.908;2023-06-10T06:32:13;6.40;;;2.87;;
13683;SDS011;6914;53.552;9.908;2023-06-10T06:34:40;6.63;;;2.43;;
13683;SDS011;6914;53.552;9.908;2023-06-10T06:37:09;6.43;;;2.50;;
13683;SDS011;6914;53.552;9.908;2023-06-10T06:39:36;6.30;;;2.77;;
13683;SDS011;6914;53.552;9.908;2023-06-10T06:42:03;8.63;;;2.70;;
13683;SDS011;6914;53.552;9.908;2023-06-10T06:44:31;11.60;;;2.70;;
13683;SDS011;6914;53.552;9.908;2023-06-10T06:46:59;5.33;;;2.60;;
13683;SDS011;6914;53.552;9.908;2023-06-10T06:49:27;3.77;;;2.00;;
13683;SDS011;6914;53.552;9.908;2023-06-10T06:51:54;6.40;;;2.40;;
13683;SDS011;6914;53.552;9.908;2023-06-10T06:54:21;6.27;;;2.30;;
13683;SDS011;6914;53.552;9.908;2023-06-10T06:56:49;4.30;;;2.40;;
13683;SDS011;6914;53.552;9.908;2023-06-10T06:59:16;11.43;;;3.40;;
13683;SDS011;6914;53.552;9.908;2023-06-10T07:01:47;5.77;;;3.10;;
13683;SDS011;6914;53.552;9.908;2023-06-10T07:04:14;10.07;;;2.90;;
13683;SDS011;6914;53.552;9.908;2023-06-10T07:06:46;14.43;;;3.17;;
13683;SDS011;6914;53.552;9.908;2023-06-10T07:09:13;9.80;;;2.33;;
13683;SDS011;6914;53.552;9.908;2023-06-10T07:11:40;7.03;;;2.53;;
13683;SDS011;6914;53.552;9.908;2023-06-10T07:14:08;12.33;;;2.93;;
13683;SDS011;6914;53.552;9.908;2023-06-10T07:16:35;9.63;;;2.70;;
13683;SDS011;6914;53.552;9.908;2023-06-10T07:19:02;6.20;;;3.53;;
13683;SDS011;6914;53.552;9.908;2023-06-10T07:21:29;10.30;;;3.63;;
13683;SDS011;6914;53.552;9.908;2023-06-10T07:23:59;9.20;;;2.80;;
13683;SDS011;6914;53.552;9.908;2023-06-10T07:26:26;12.07;;;3.70;;
13683;SDS011;6914;53.552;9.908;2023-06-10T07:28:53;8.97;;;2.87;;
13683;SDS011;6914;53.552;9.908;2023-06-10T07:31:20;5.30;;;2.87;;
13683;SDS011;6914;53.552;9.908;2023-06-10T07:33:48;9.73;;;3.10;;
13683;SDS011;6914;53.552;9.908;2023-06-10T07:36:15;3.60;;;2.57;;
13683;SDS011;6914;53.552;9.908;2023-06-10T07:38:42;10.00;;;3.00;;
13683;SDS011;6914;53.552;9.908;2023-06-10T07:41:12;8.33;;;2.47;;
13683;SDS011;6914;53.552;9.908;2023-06-10T07:43:44;3.73;;;2.90;;
13683;SDS011;6914;53.552;9.908;2023-06-10T07:46:12;7.57;;;2.70;;
13683;SDS011;6914;53.552;9.908;2023-06-10T07:48:39;6.00;;;3.33;;
13683;SDS011;6914;53.552;9.908;2023-06-10T07:51:07;19.97;;;3.10;;
13683;SDS011;6914;53.552;9.908;2023-06-10T07:53:34;16.03;;;4.30;;
13683;SDS011;6914;53.552;9.908;2023-06-10T07:56:01;3.37;;;3.00;;
13683;SDS011;6914;53.552;9.908;2023-06-10T07:58:30;15.10;;;3.33;;
13683;SDS011;6914;53.552;9.908;2023-06-10T08:00:57;5.60;;;3.00;;
13683;SDS011;6914;53.552;9.908;2023-06-10T08:03:24;8.10;;;3.20;;
13683;SDS011;6914;53.552;9.908;2023-06-10T08:05:51;12.90;;;2.90;;
13683;SDS011;6914;53.552;9.908;2023-06-10T08:08:18;9.53;;;3.57;;
13683;SDS011;6914;53.552;9.908;2023-06-10T08:10:46;3.77;;;3.33;;
13683;SDS011;6914;53.552;9.908;2023-06-10T08:13:15;8.30;;;3.40;;
13683;SDS011;6914;53.552;9.908;2023-06-10T08:15:44;8.80;;;3.37;;
13683;SDS011;6914;53.552;9.908;2023-06-10T08:18:12;6.03;;;2.53;;
13683;SDS011;6914;53.552;9.908;2023-06-10T08:20:39;8.63;;;3.10;;
13683;SDS011;6914;53.552;9.908;2023-06-10T08:23:07;6.00;;;3.60;;
13683;SDS011;6914;53.552;9.908;2023-06-10T08:25:34;8.00;;;3.33;;
13683;SDS011;6914;53.552;9.908;2023-06-10T08:28:02;3.57;;;3.30;;
13683;SDS011;6914;53.552;9.908;2023-06-10T08:30:33;16.87;;;3.40;;
13683;SDS011;6914;53.552;9.908;2023-06-10T08:33:01;6.93;;;3.60;;
13683;SDS011;6914;53.552;9.908;2023-06-10T08:35:28;8.70;;;3.50;;
13683;SDS011;6914;53.552;9.908;2023-06-10T08:37:56;8.83;;;3.60;;
13683;SDS011;6914;53.552;9.908;2023-06-10T08:40:23;4.97;;;3.13;;
13683;SDS011;6914;53.552;9.908;2023-06-10T08:42:53;8.03;;;3.10;;
13683;SDS011;6914;53.552;9.908;2023-06-10T08:45:21;19.07;;;3.87;;
13683;SDS011;6914;53.552;9.908;2023-06-10T08:47:49;7.40;;;3.77;;
13683;SDS011;6914;53.552;9.908;2023-06-10T08:50:19;8.87;;;3.73;;
13683;SDS011;6914;53.552;9.908;2023-06-10T08:52:48;8.93;;;3.20;;
13683;SDS011;6914;53.552;9.908;2023-06-10T08:55:17;7.50;;;3.73;;
13683;SDS011;6914;53.552;9.908;2023-06-10T08:57:47;14.93;;;3.70;;
13683;SDS011;6914;53.552;9.908;2023-06-10T09:00:15;10.40;;;3.70;;
13683;SDS011;6914;53.552;9.908;2023-06-10T09:02:45;10.23;;;3.70;;
13683;SDS011;6914;53.552;9.908;2023-06-10T09:05:13;7.83;;;3.70;;
13683;SDS011;6914;53.552;9.908;2023-06-10T09:07:42;10.37;;;4.13;;
13683;SDS011;6914;53.552;9.908;2023-06-10T09:10:11;8.17;;;3.20;;
13683;SDS011;6914;53.552;9.908;2023-06-10T09:12:39;4.87;;;2.90;;
13683;SDS011;6914;53.552;9.908;2023-06-10T09:15:07;13.07;;;4.30;;
13683;SDS011;6914;53.552;9.908;2023-06-10T09:17:36;13.43;;;3.77;;
13683;SDS011;6914;53.552;9.908;2023-06-10T09:20:06;5.93;;;2.83;;
13683;SDS011;6914;53.552;9.908;2023-06-10T09:22:33;7.10;;;3.83;;
13683;SDS011;6914;53.552;9.908;2023-06-10T09:25:06;5.37;;;3.50;;
13683;SDS011;6914;53.552;9.908;2023-06-10T09:27:34;13.83;;;4.07;;
13683;SDS011;6914;53.552;9.908;2023-06-10T09:30:23;9.97;;;4.03;;
13683;SDS011;6914;53.552;9.908;2023-06-10T09:32:52;7.73;;;4.03;;
13683;SDS011;6914;53.552;9.908;2023-06-10T09:35:20;7.93;;;3.53;;
13683;SDS011;6914;53.552;9.908;2023-06-10T09:37:49;6.03;;;3.70;;
13683;SDS011;6914;53.552;9.908;2023-06-10T09:40:18;8.30;;;3.43;;
13683;SDS011;6914;53.552;9.908;2023-06-10T09:42:45;13.50;;;4.20;;
13683;SDS011;6914;53.552;9.908;2023-06-10T09:45:18;12.17;;;3.77;;
13683;SDS011;6914;53.552;9.908;2023-06-10T09:47:46;12.10;;;4.10;;
13683;SDS011;6914;53.552;9.908;2023-06-10T09:50:13;3.70;;;3.17;;
13683;SDS011;6914;53.552;9.908;2023-06-10T09:52:46;10.57;;;4.20;;
13683;SDS011;6914;53.552;9.908;2023-06-10T09:55:14;9.03;;;3.30;;
13683;SDS011;6914;53.552;9.908;2023-06-10T09:57:44;12.57;;;3.30;;
13683;SDS011;6914;53.552;9.908;2023-06-10T10:00:16;5.70;;;3.73;;
13683;SDS011;6914;53.552;9.908;2023-06-10T10:02:47;8.70;;;3.17;;
13683;SDS011;6914;53.552;9.908;2023-06-10T10:05:14;3.10;;;2.90;;
13683;SDS011;6914;53.552;9.908;2023-06-10T10:07:42;4.40;;;3.00;;
13683;SDS011;6914;53.552;9.908;2023-06-10T10:10:12;4.37;;;3.30;;
13683;SDS011;6914;53.552;9.908;2023-06-10T10:12:41;7.30;;;3.20;;
13683;SDS011;6914;53.552;9.908;2023-06-10T10:15:12;2.63;;;2.43;;
13683;SDS011;6914;53.552;9.908;2023-06-10T10:17:39;10.87;;;2.80;;
13683;SDS011;6914;53.552;9.908;2023-06-10T10:20:08;12.13;;;3.90;;
13683;SDS011;6914;53.552;9.908;2023-06-10T10:22:37;6.67;;;3.67;;
13683;SDS011;6914;53.552;9.908;2023-06-10T10:25:07;7.23;;;2.80;;
13683;SDS011;6914;53.552;9.908;2023-06-10T10:27:39;4.80;;;2.67;;
13683;SDS011;6914;53.552;9.908;2023-06-10T10:30:15;7.43;;;2.37;;
13683;SDS011;6914;53.552;9.908;2023-06-10T10:32:52;5.43;;;3.03;;
13683;SDS011;6914;53.552;9.908;2023-06-10T10:35:24;5.07;;;2.57;;
13683;SDS011;6914;53.552;9.908;2023-06-10T10:37:52;3.23;;;3.03;;
13683;SDS011;6914;53.552;9.908;2023-06-10T10:40:19;4.33;;;3.27;;
13683;SDS011;6914;53.552;9.908;2023-06-10T10:42:47;4.67;;;2.87;;
13683;SDS011;6914;53.552;9.908;2023-06-10T10:45:16;9.90;;;3.40;;
13683;SDS011;6914;53.552;9.908;2023-06-10T10:47:45;3.70;;;3.13;;
13683;SDS011;6914;53.552;9.908;2023-06-10T10:50:13;5.00;;;3.03;;
13683;SDS011;6914;53.552;9.908;2023-06-10T10:52:46;4.70;;;2.80;;
13683;SDS011;6914;53.552;9.908;2023-06-10T10:55:17;11.93;;;2.70;;
13683;SDS011;6914;53.552;9.908;2023-06-10T10:57:45;6.50;;;3.13;;
13683;SDS011;6914;53.552;9.908;2023-06-10T11:00:28;6.00;;;3.00;;
13683;SDS011;6914;53.552;9.908;2023-06-10T11:03:00;4.43;;;2.60;;
13683;SDS011;6914;53.552;9.908;2023-06-10T11:05:31;4.40;;;3.10;;
13683;SDS011;6914;53.552;9.908;2023-06-10T11:08:00;2.77;;;2.63;;
13683;SDS011;6914;53.552;9.908;2023-06-10T11:10:28;3.10;;;2.80;;
13683;SDS011;6914;53.552;9.908;2023-06-10T11:12:56;10.90;;;3.13;;
13683;SDS011;6914;53.552;9.908;2023-06-10T11:15:24;3.50;;;3.20;;
13683;SDS011;6914;53.552;9.908;2023-06-10T11:18:09;4.00;;;2.57;;
13683;SDS011;6914;53.552;9.908;2023-06-10T11:20:50;3.90;;;3.00;;
13683;SDS011;6914;53.552;9.908;2023-06-10T11:26:19;9.70;;;3.07;;
13683;SDS011;6914;53.552;9.908;2023-06-10T11:29:02;9.30;;;3.00;;
13683;SDS011;6914;53.552;9.908;2023-06-10T11:31:30;10.80;;;2.80;;
13683;SDS011;6914;53.552;9.908;2023-06-10T11:34:00;6.50;;;3.07;;
13683;SDS011;6914;53.552;9.908;2023-06-10T11:36:28;5.27;;;2.80;;
13683;SDS011;6914;53.552;9.908;2023-06-10T11:38:56;3.13;;;2.80;;
13683;SDS011;6914;53.552;9.908;2023-06-10T11:41:24;3.20;;;3.00;;
13683;SDS011;6914;53.552;9.908;2023-06-10T11:43:52;8.57;;;3.37;;
13683;SDS011;6914;53.552;9.908;2023-06-10T11:46:19;7.00;;;2.27;;
13683;SDS011;6914;53.552;9.908;2023-06-10T11:48:49;9.73;;;3.13;;
13683;SDS011;6914;53.552;9.908;2023-06-10T11:51:18;11.87;;;3.30;;
13683;SDS011;6914;53.552;9.908;2023-06-10T11:53:49;3.30;;;3.10;;
13683;SDS011;6914;53.552;9.908;2023-06-10T11:56:19;4.87;;;3.50;;
13683;SDS011;6914;53.552;9.908;2023-06-10T11:58:51;3.90;;;3.53;;
13683;SDS011;6914;53.552;9.908;2023-06-10T12:01:19;7.73;;;3.87;;
13683;SDS011;6914;53.552;9.908;2023-06-10T12:03:47;8.80;;;3.13;;
13683;SDS011;6914;53.552;9.908;2023-06-10T12:06:14;5.23;;;3.50;;
13683;SDS011;6914;53.552;9.908;2023-06-10T12:08:43;5.00;;;3.30;;
13683;SDS011;6914;53.552;9.908;2023-06-10T12:11:12;4.67;;;3.30;;
13683;SDS011;6914;53.552;9.908;2023-06-10T12:13:46;5.63;;;2.70;;
13683;SDS011;6914;53.552;9.908;2023-06-10T12:16:14;3.90;;;3.63;;
13683;SDS011;6914;53.552;9.908;2023-06-10T12:18:43;4.77;;;4.30;;
13683;SDS011;6914;53.552;9.908;2023-06-10T12:21:15;9.43;;;4.07;;
13683;SDS011;6914;53.552;9.908;2023-06-10T12:26:34;18.27;;;4.37;;
13683;SDS011;6914;53.552;9.908;2023-06-10T12:29:02;6.23;;;3.50;;
13683;SDS011;6914;53.552;9.908;2023-06-10T12:31:30;3.80;;;3.50;;
13683;SDS011;6914;53.552;9.908;2023-06-10T12:34:07;5.57;;;4.23;;
13683;SDS011;6914;53.552;9.908;2023-06-10T12:36:34;4.60;;;4.13;;
13683;SDS011;6914;53.552;9.908;2023-06-10T12:39:02;5.80;;;3.70;;
13683;SDS011;6914;53.552;9.908;2023-06-10T12:41:30;7.10;;;5.07;;
13683;SDS011;6914;53.552;9.908;2023-06-10T12:44:01;6.60;;;4.40;;
13683;SDS011;6914;53.552;9.908;2023-06-10T12:46:35;5.33;;;4.83;;
13683;SDS011;6914;53.552;9.908;2023-06-10T12:49:02;17.23;;;5.17;;
13683;SDS011;6914;53.552;9.908;2023-06-10T12:51:29;5.23;;;4.20;;
13683;SDS011;6914;53.552;9.908;2023-06-10T12:53:56;7.07;;;4.30;;
13683;SDS011;6914;53.552;9.908;2023-06-10T12:56:25;5.50;;;4.70;;
13683;SDS011;6914;53.552;9.908;2023-06-10T12:58:53;4.27;;;4.00;;
13683;SDS011;6914;53.552;9.908;2023-06-10T13:01:24;6.53;;;4.30;;
13683;SDS011;6914;53.552;9.908;2023-06-10T13:03:52;7.20;;;4.50;;
13683;SDS011;6914;53.552;9.908;2023-06-10T13:06:19;7.13;;;4.90;;
13683;SDS011;6914;53.552;9.908;2023-06-10T13:08:46;5.70;;;4.70;;
13683;SDS011;6914;53.552;9.908;2023-06-10T13:11:13;4.60;;;4.20;;
13683;SDS011;6914;53.552;9.908;2023-06-10T13:13:45;8.73;;;4.20;;
13683;SDS011;6914;53.552;9.908;2023-06-10T13:16:12;6.70;;;4.83;;
13683;SDS011;6914;53.552;9.908;2023-06-10T13:18:44;5.13;;;4.83;;
13683;SDS011;6914;53.552;9.908;2023-06-10T13:21:15;10.73;;;5.10;;
13683;SDS011;6914;53.552;9.908;2023-06-10T13:23:45;5.53;;;5.10;;
13683;SDS011;6914;53.552;9.908;2023-06-10T13:26:13;4.87;;;4.33;;
13683;SDS011;6914;53.552;9.908;2023-06-10T13:28:41;5.37;;;4.50;;
13683;SDS011;6914;53.552;9.908;2023-06-10T13:31:08;6.10;;;5.60;;
13683;SDS011;6914;53.552;9.908;2023-06-10T13:33:36;6.37;;;4.87;;
13683;SDS011;6914;53.552;9.908;2023-06-10T13:36:05;8.83;;;4.70;;
13683;SDS011;6914;53.552;9.908;2023-06-10T13:38:32;7.13;;;5.00;;
13683;SDS011;6914;53.552;9.908;2023-06-10T13:40:59;6.80;;;5.20;;
13683;SDS011;6914;53.552;9.908;2023-06-10T13:43:26;4.90;;;4.40;;
13683;SDS011;6914;53.552;9.908;2023-06-10T13:45:54;9.47;;;6.07;;
13683;SDS011;6914;53.552;9.908;2023-06-10T13:48:21;5.23;;;4.73;;
13683;SDS011;6914;53.552;9.908;2023-06-10T13:50:49;5.27;;;4.77;;
13683;SDS011;6914;53.552;9.908;2023-06-10T13:53:17;5.83;;;4.10;;
13683;SDS011;6914;53.552;9.908;2023-06-10T13:55:46;4.83;;;4.43;;
13683;SDS011;6914;53.552;9.908;2023-06-10T13:58:13;14.80;;;4.27;;
13683;SDS011;6914;53.552;9.908;2023-06-10T14:00:41;6.67;;;4.43;;
13683;SDS011;6914;53.552;9.908;2023-06-10T14:03:13;8.30;;;4.60;;
13683;SDS011;6914;53.552;9.908;2023-06-10T14:05:41;17.67;;;5.30;;
13683;SDS011;6914;53.552;9.908;2023-06-10T14:08:11;10.70;;;3.90;;
13683;SDS011;6914;53.552;9.908;2023-06-10T14:10:40;10.07;;;4.20;;
13683;SDS011;6914;53.552;9.908;2023-06-10T14:13:08;23.70;;;4.00;;
13683;SDS011;6914;53.552;9.908;2023-06-10T14:15:35;17.37;;;4.70;;
13683;SDS011;6914;53.552;9.908;2023-06-10T14:18:03;4.30;;;3.43;;
13683;SDS011;6914;53.552;9.908;2023-06-10T14:20:30;11.47;;;4.03;;
13683;SDS011;6914;53.552;9.908;2023-06-10T14:22:57;4.40;;;3.63;;
13683;SDS011;6914;53.552;9.908;2023-06-10T14:25:24;9.93;;;4.03;;
13683;SDS011;6914;53.552;9.908;2023-06-10T14:27:53;7.40;;;3.80;;
13683;SDS011;6914;53.552;9.908;2023-06-10T14:30:20;9.00;;;3.77;;
13683;SDS011;6914;53.552;9.908;2023-06-10T14:32:48;21.00;;;4.30;;
13683;SDS011;6914;53.552;9.908;2023-06-10T14:35:15;6.77;;;3.80;;
13683;SDS011;6914;53.552;9.908;2023-06-10T14:37:42;8.10;;;4.50;;
13683;SDS011;6914;53.552;9.908;2023-06-10T14:40:12;7.57;;;4.30;;
13683;SDS011;6914;53.552;9.908;2023-06-10T14:42:39;9.30;;;5.73;;
13683;SDS011;6914;53.552;9.908;2023-06-10T14:45:08;7.20;;;3.40;;
13683;SDS011;6914;53.552;9.908;2023-06-10T14:47:36;8.90;;;3.83;;
13683;SDS011;6914;53.552;9.908;2023-06-10T14:50:03;6.37;;;3.27;;
13683;SDS011;6914;53.552;9.908;2023-06-10T14:52:31;8.73;;;3.70;;
13683;SDS011;6914;53.552;9.908;2023-06-10T14:54:58;7.80;;;3.50;;
13683;SDS011;6914;53.552;9.908;2023-06-10T14:57:25;5.60;;;4.03;;
13683;SDS011;6914;53.552;9.908;2023-06-10T14:59:52;10.10;;;3.97;;
13683;SDS011;6914;53.552;9.908;2023-06-10T15:02:22;6.17;;;3.63;;
13683;SDS011;6914;53.552;9.908;2023-06-10T15:04:50;8.83;;;4.60;;
13683;SDS011;6914;53.552;9.908;2023-06-10T15:07:17;12.30;;;3.77;;
13683;SDS011;6914;53.552;9.908;2023-06-10T15:09:45;11.13;;;3.67;;
13683;SDS011;6914;53.552;9.908;2023-06-10T15:12:15;8.20;;;3.60;;